sensor_id;sensor_type;location;lat;lon;timestamp;P1;durP1;ratioP1;P2;durP2;ratioP2
45344;SDS011;31078;48.304;11.896;2022-10-16T00:00:20;4.28;;;1.08;;
45344;SDS011;31078;48.304;11.896;2022-10-16T00:02:46;3.28;;;1.30;;
45344;SDS011;31078;48.304;11.896;2022-10-16T00:05:13;3.15;;;1.05;;
45344;SDS011;31078;48.304;11.896;2022-10-16T00:07:39;3.90;;;1.13;;
45344;SDS011;31078;48.304;11.896;2022-10-16T00:10:06;2.22;;;1.00;;
45344;SDS011;31078;48.304;11.896;2022-10-16T00:12:34;2.55;;;1.27;;
45344;SDS011;31078;48.304;11.896;2022-10-16T00:15:01;1.70;;;1.05;;
45344;SDS011;31078;48.304;11.896;2022-10-16T00:17:28;1.58;;;1.10;;
45344;SDS011;31078;48.304;11.896;2022-10-16T00:19:55;2.10;;;1.25;;
45344;SDS011;31078;48.304;11.896;2022-10-16T00:22:22;2.72;;;1.05;;
45344;SDS011;31078;48.304;11.896;2022-10-16T00:24:49;1.90;;;0.95;;
45344;SDS011;31078;48.304;11.896;2022-10-16T00:27:15;3.33;;;1.10;;
45344;SDS011;31078;48.304;11.896;2022-10-16T00:29:44;8.85;;;2.35;;
45344;SDS011;31078;48.304;11.896;2022-10-16T00:32:10;5.50;;;1.67;;
45344;SDS011;31078;48.304;11.896;2022-10-16T00:34:37;3.60;;;1.63;;
45344;SDS011;31078;48.304;11.896;2022-10-16T00:37:03;6.05;;;1.80;;
45344;SDS011;31078;48.304;11.896;2022-10-16T00:39:30;2.70;;;1.30;;
45344;SDS011;31078;48.304;11.896;2022-10-16T00:41:56;3.10;;;1.40;;
45344;SDS011;31078;48.304;11.896;2022-10-16T00:44:44;6.63;;;1.73;;
45344;SDS011;31078;48.304;11.896;2022-10-16T00:47:15;3.45;;;1.90;;
45344;SDS011;31078;48.304;11.896;2022-10-16T00:49:44;3.95;;;1.95;;
45344;SDS011;31078;48.304;11.896;2022-10-16T00:52:13;4.53;;;2.03;;
45344;SDS011;31078;48.304;11.896;2022-10-16T00:54:40;5.13;;;1.75;;
45344;SDS011;31078;48.304;11.896;2022-10-16T00:57:07;6.88;;;1.65;;
45344;SDS011;31078;48.304;11.896;2022-10-16T00:59:35;4.45;;;2.33;;
45344;SDS011;31078;48.304;11.896;2022-10-16T01:02:06;4.25;;;2.08;;
45344;SDS011;31078;48.304;11.896;2022-10-16T01:04:35;3.78;;;2.03;;
45344;SDS011;31078;48.304;11.896;2022-10-16T01:07:06;3.92;;;1.98;;
45344;SDS011;31078;48.304;11.896;2022-10-16T01:09:40;3.88;;;1.77;;
45344;SDS011;31078;48.304;11.896;2022-10-16T01:12:18;4.47;;;2.22;;
45344;SDS011;31078;48.304;11.896;2022-10-16T01:14:54;6.53;;;2.38;;
45344;SDS011;31078;48.304;11.896;2022-10-16T01:17:28;4.10;;;2.03;;
45344;SDS011;31078;48.304;11.896;2022-10-16T01:20:03;4.30;;;2.25;;
45344;SDS011;31078;48.304;11.896;2022-10-16T01:22:41;5.65;;;2.50;;
45344;SDS011;31078;48.304;11.896;2022-10-16T01:25:16;7.43;;;2.80;;
45344;SDS011;31078;48.304;11.896;2022-10-16T01:27:51;6.32;;;2.05;;
45344;SDS011;31078;48.304;11.896;2022-10-16T01:30:20;3.42;;;2.08;;
45344;SDS011;31078;48.304;11.896;2022-10-16T01:32:49;6.13;;;1.98;;
45344;SDS011;31078;48.304;11.896;2022-10-16T01:35:22;4.85;;;2.15;;
45344;SDS011;31078;48.304;11.896;2022-10-16T01:37:53;3.13;;;1.83;;
45344;SDS011;31078;48.304;11.896;2022-10-16T01:40:24;3.03;;;1.95;;
45344;SDS011;31078;48.304;11.896;2022-10-16T01:42:55;4.25;;;2.17;;
45344;SDS011;31078;48.304;11.896;2022-10-16T01:45:26;4.50;;;2.20;;
45344;SDS011;31078;48.304;11.896;2022-10-16T01:47:56;4.55;;;1.95;;
45344;SDS011;31078;48.304;11.896;2022-10-16T01:50:29;5.38;;;2.13;;
45344;SDS011;31078;48.304;11.896;2022-10-16T01:52:58;4.70;;;2.25;;
45344;SDS011;31078;48.304;11.896;2022-10-16T01:55:28;3.10;;;2.22;;
45344;SDS011;31078;48.304;11.896;2022-10-16T01:58:00;3.42;;;2.25;;
45344;SDS011;31078;48.304;11.896;2022-10-16T02:00:29;3.80;;;2.20;;
45344;SDS011;31078;48.304;11.896;2022-10-16T02:02:57;4.18;;;2.63;;
45344;SDS011;31078;48.304;11.896;2022-10-16T02:05:28;3.03;;;2.30;;
45344;SDS011;31078;48.304;11.896;2022-10-16T02:07:59;5.88;;;2.78;;
45344;SDS011;31078;48.304;11.896;2022-10-16T02:10:26;4.03;;;2.47;;
45344;SDS011;31078;48.304;11.896;2022-10-16T02:12:56;5.10;;;2.45;;
45344;SDS011;31078;48.304;11.896;2022-10-16T02:15:29;6.75;;;2.70;;
45344;SDS011;31078;48.304;11.896;2022-10-16T02:17:56;3.67;;;2.33;;
45344;SDS011;31078;48.304;11.896;2022-10-16T02:20:25;5.10;;;2.35;;
45344;SDS011;31078;48.304;11.896;2022-10-16T02:22:54;3.03;;;2.25;;
45344;SDS011;31078;48.304;11.896;2022-10-16T02:25:24;3.42;;;2.20;;
45344;SDS011;31078;48.304;11.896;2022-10-16T02:27:53;3.38;;;2.42;;
45344;SDS011;31078;48.304;11.896;2022-10-16T02:30:25;5.93;;;2.65;;
45344;SDS011;31078;48.304;11.896;2022-10-16T02:32:56;4.60;;;2.25;;
45344;SDS011;31078;48.304;11.896;2022-10-16T02:35:26;4.22;;;2.40;;
45344;SDS011;31078;48.304;11.896;2022-10-16T02:37:54;4.25;;;2.60;;
45344;SDS011;31078;48.304;11.896;2022-10-16T02:40:22;5.18;;;2.60;;
45344;SDS011;31078;48.304;11.896;2022-10-16T02:42:50;3.00;;;2.30;;
45344;SDS011;31078;48.304;11.896;2022-10-16T02:45:18;5.55;;;2.50;;
45344;SDS011;31078;48.304;11.896;2022-10-16T02:47:47;3.72;;;2.28;;
45344;SDS011;31078;48.304;11.896;2022-10-16T02:50:14;3.97;;;2.13;;
45344;SDS011;31078;48.304;11.896;2022-10-16T02:52:41;5.68;;;2.30;;
45344;SDS011;31078;48.304;11.896;2022-10-16T02:55:08;4.30;;;2.38;;
45344;SDS011;31078;48.304;11.896;2022-10-16T02:57:34;3.40;;;2.00;;
45344;SDS011;31078;48.304;11.896;2022-10-16T03:00:02;5.88;;;2.30;;
45344;SDS011;31078;48.304;11.896;2022-10-16T03:02:29;3.90;;;2.25;;
45344;SDS011;31078;48.304;11.896;2022-10-16T03:04:57;3.58;;;2.20;;
45344;SDS011;31078;48.304;11.896;2022-10-16T03:07:24;3.15;;;2.28;;
45344;SDS011;31078;48.304;11.896;2022-10-16T03:09:50;3.45;;;2.40;;
45344;SDS011;31078;48.304;11.896;2022-10-16T03:12:17;2.92;;;2.10;;
45344;SDS011;31078;48.304;11.896;2022-10-16T03:14:43;5.70;;;2.53;;
45344;SDS011;31078;48.304;11.896;2022-10-16T03:17:10;2.83;;;1.90;;
45344;SDS011;31078;48.304;11.896;2022-10-16T03:19:37;3.42;;;2.05;;
45344;SDS011;31078;48.304;11.896;2022-10-16T03:22:05;2.90;;;2.20;;
45344;SDS011;31078;48.304;11.896;2022-10-16T03:24:32;4.30;;;2.30;;
45344;SDS011;31078;48.304;11.896;2022-10-16T03:26:59;5.95;;;2.40;;
45344;SDS011;31078;48.304;11.896;2022-10-16T03:29:25;3.67;;;2.05;;
45344;SDS011;31078;48.304;11.896;2022-10-16T03:31:54;2.78;;;2.08;;
45344;SDS011;31078;48.304;11.896;2022-10-16T03:34:21;4.22;;;2.10;;
45344;SDS011;31078;48.304;11.896;2022-10-16T03:36:47;3.80;;;2.00;;
45344;SDS011;31078;48.304;11.896;2022-10-16T03:39:15;3.25;;;2.30;;
45344;SDS011;31078;48.304;11.896;2022-10-16T03:41:42;6.28;;;2.70;;
45344;SDS011;31078;48.304;11.896;2022-10-16T03:44:08;3.10;;;2.17;;
45344;SDS011;31078;48.304;11.896;2022-10-16T03:46:35;4.65;;;2.00;;
45344;SDS011;31078;48.304;11.896;2022-10-16T03:49:01;6.43;;;2.58;;
45344;SDS011;31078;48.304;11.896;2022-10-16T03:51:28;2.97;;;2.08;;
45344;SDS011;31078;48.304;11.896;2022-10-16T03:53:54;3.42;;;2.33;;
45344;SDS011;31078;48.304;11.896;2022-10-16T03:56:22;6.45;;;2.70;;
45344;SDS011;31078;48.304;11.896;2022-10-16T03:58:49;6.90;;;2.40;;
45344;SDS011;31078;48.304;11.896;2022-10-16T04:01:15;3.30;;;2.30;;
45344;SDS011;31078;48.304;11.896;2022-10-16T04:03:42;3.60;;;2.17;;
45344;SDS011;31078;48.304;11.896;2022-10-16T04:06:08;2.97;;;2.47;;
45344;SDS011;31078;48.304;11.896;2022-10-16T04:08:35;5.28;;;2.10;;
45344;SDS011;31078;48.304;11.896;2022-10-16T04:11:02;2.95;;;2.10;;
45344;SDS011;31078;48.304;11.896;2022-10-16T04:13:30;3.28;;;2.10;;
45344;SDS011;31078;48.304;11.896;2022-10-16T04:15:57;3.03;;;2.13;;
45344;SDS011;31078;48.304;11.896;2022-10-16T04:18:23;4.07;;;2.10;;
45344;SDS011;31078;48.304;11.896;2022-10-16T04:20:52;6.75;;;2.25;;
45344;SDS011;31078;48.304;11.896;2022-10-16T04:23:19;3.22;;;2.00;;
45344;SDS011;31078;48.304;11.896;2022-10-16T04:25:45;4.93;;;1.92;;
45344;SDS011;31078;48.304;11.896;2022-10-16T04:28:12;3.20;;;2.13;;
45344;SDS011;31078;48.304;11.896;2022-10-16T04:30:40;4.07;;;2.05;;
45344;SDS011;31078;48.304;11.896;2022-10-16T04:33:07;4.45;;;2.60;;
45344;SDS011;31078;48.304;11.896;2022-10-16T04:35:35;4.72;;;2.30;;
45344;SDS011;31078;48.304;11.896;2022-10-16T04:38:01;4.57;;;2.28;;
45344;SDS011;31078;48.304;11.896;2022-10-16T04:40:28;5.45;;;2.20;;
45344;SDS011;31078;48.304;11.896;2022-10-16T04:42:57;4.38;;;2.33;;
45344;SDS011;31078;48.304;11.896;2022-10-16T04:45:24;5.28;;;2.35;;
45344;SDS011;31078;48.304;11.896;2022-10-16T04:47:52;3.00;;;2.17;;
45344;SDS011;31078;48.304;11.896;2022-10-16T04:50:22;3.13;;;2.10;;
45344;SDS011;31078;48.304;11.896;2022-10-16T04:52:49;3.60;;;2.00;;
45344;SDS011;31078;48.304;11.896;2022-10-16T04:55:15;2.83;;;2.22;;
45344;SDS011;31078;48.304;11.896;2022-10-16T04:57:42;3.03;;;1.92;;
45344;SDS011;31078;48.304;11.896;2022-10-16T05:00:09;3.60;;;2.10;;
45344;SDS011;31078;48.304;11.896;2022-10-16T05:02:36;2.08;;;1.70;;
45344;SDS011;31078;48.304;11.896;2022-10-16T05:05:05;4.00;;;2.10;;
45344;SDS011;31078;48.304;11.896;2022-10-16T05:07:32;3.65;;;2.42;;
45344;SDS011;31078;48.304;11.896;2022-10-16T05:09:58;4.35;;;2.03;;
45344;SDS011;31078;48.304;11.896;2022-10-16T05:12:25;4.18;;;2.28;;
45344;SDS011;31078;48.304;11.896;2022-10-16T05:14:51;2.75;;;2.00;;
45344;SDS011;31078;48.304;11.896;2022-10-16T05:17:23;2.58;;;1.90;;
45344;SDS011;31078;48.304;11.896;2022-10-16T05:19:49;4.05;;;1.92;;
45344;SDS011;31078;48.304;11.896;2022-10-16T05:22:18;4.28;;;2.30;;
45344;SDS011;31078;48.304;11.896;2022-10-16T05:24:44;4.75;;;2.13;;
45344;SDS011;31078;48.304;11.896;2022-10-16T05:27:11;5.18;;;2.00;;
45344;SDS011;31078;48.304;11.896;2022-10-16T05:29:43;4.80;;;2.13;;
45344;SDS011;31078;48.304;11.896;2022-10-16T05:32:11;4.15;;;1.88;;
45344;SDS011;31078;48.304;11.896;2022-10-16T05:34:37;2.35;;;1.70;;
45344;SDS011;31078;48.304;11.896;2022-10-16T05:37:04;3.78;;;2.10;;
45344;SDS011;31078;48.304;11.896;2022-10-16T05:39:32;4.35;;;2.00;;
45344;SDS011;31078;48.304;11.896;2022-10-16T05:41:59;2.72;;;1.92;;
45344;SDS011;31078;48.304;11.896;2022-10-16T05:44:26;4.25;;;2.03;;
45344;SDS011;31078;48.304;11.896;2022-10-16T05:46:52;5.72;;;2.20;;
45344;SDS011;31078;48.304;11.896;2022-10-16T05:49:19;4.82;;;2.00;;
45344;SDS011;31078;48.304;11.896;2022-10-16T05:51:45;2.70;;;2.15;;
45344;SDS011;31078;48.304;11.896;2022-10-16T05:54:12;5.53;;;2.50;;
45344;SDS011;31078;48.304;11.896;2022-10-16T05:56:40;5.32;;;2.13;;
45344;SDS011;31078;48.304;11.896;2022-10-16T05:59:07;4.82;;;2.20;;
45344;SDS011;31078;48.304;11.896;2022-10-16T06:01:33;3.15;;;2.20;;
45344;SDS011;31078;48.304;11.896;2022-10-16T06:04:00;4.13;;;2.30;;
45344;SDS011;31078;48.304;11.896;2022-10-16T06:06:27;3.58;;;2.47;;
45344;SDS011;31078;48.304;11.896;2022-10-16T06:08:55;6.32;;;2.90;;
45344;SDS011;31078;48.304;11.896;2022-10-16T06:11:22;3.35;;;2.20;;
45344;SDS011;31078;48.304;11.896;2022-10-16T06:13:53;2.92;;;2.40;;
45344;SDS011;31078;48.304;11.896;2022-10-16T06:16:21;3.08;;;2.05;;
45344;SDS011;31078;48.304;11.896;2022-10-16T06:18:50;3.35;;;2.15;;
45344;SDS011;31078;48.304;11.896;2022-10-16T06:21:18;3.55;;;2.38;;
45344;SDS011;31078;48.304;11.896;2022-10-16T06:23:47;3.17;;;2.03;;
45344;SDS011;31078;48.304;11.896;2022-10-16T06:26:14;4.13;;;2.40;;
45344;SDS011;31078;48.304;11.896;2022-10-16T06:28:42;5.38;;;2.65;;
45344;SDS011;31078;48.304;11.896;2022-10-16T06:31:10;3.97;;;2.45;;
45344;SDS011;31078;48.304;11.896;2022-10-16T06:33:38;3.08;;;2.20;;
45344;SDS011;31078;48.304;11.896;2022-10-16T06:36:05;3.20;;;2.25;;
45344;SDS011;31078;48.304;11.896;2022-10-16T06:38:34;3.80;;;2.28;;
45344;SDS011;31078;48.304;11.896;2022-10-16T06:41:02;3.90;;;2.47;;
45344;SDS011;31078;48.304;11.896;2022-10-16T06:43:29;3.58;;;2.58;;
45344;SDS011;31078;48.304;11.896;2022-10-16T06:45:58;6.68;;;2.45;;
45344;SDS011;31078;48.304;11.896;2022-10-16T06:48:27;4.85;;;2.80;;
45344;SDS011;31078;48.304;11.896;2022-10-16T06:50:56;3.60;;;2.60;;
45344;SDS011;31078;48.304;11.896;2022-10-16T06:53:23;5.95;;;2.78;;
45344;SDS011;31078;48.304;11.896;2022-10-16T06:55:50;5.80;;;2.88;;
45344;SDS011;31078;48.304;11.896;2022-10-16T06:58:17;6.63;;;3.90;;
45344;SDS011;31078;48.304;11.896;2022-10-16T07:00:43;5.00;;;2.90;;
45344;SDS011;31078;48.304;11.896;2022-10-16T07:03:10;4.65;;;2.60;;
45344;SDS011;31078;48.304;11.896;2022-10-16T07:05:38;4.43;;;2.83;;
45344;SDS011;31078;48.304;11.896;2022-10-16T07:08:05;6.18;;;2.92;;
45344;SDS011;31078;48.304;11.896;2022-10-16T07:10:32;3.70;;;2.55;;
45344;SDS011;31078;48.304;11.896;2022-10-16T07:12:59;5.70;;;2.65;;
45344;SDS011;31078;48.304;11.896;2022-10-16T07:15:26;4.90;;;3.10;;
45344;SDS011;31078;48.304;11.896;2022-10-16T07:17:52;4.65;;;3.33;;
45344;SDS011;31078;48.304;11.896;2022-10-16T07:20:19;4.10;;;2.60;;
45344;SDS011;31078;48.304;11.896;2022-10-16T07:22:47;6.35;;;2.78;;
45344;SDS011;31078;48.304;11.896;2022-10-16T07:25:14;6.68;;;2.72;;
45344;SDS011;31078;48.304;11.896;2022-10-16T07:27:40;3.60;;;2.08;;
45344;SDS011;31078;48.304;11.896;2022-10-16T07:30:07;4.93;;;2.85;;
45344;SDS011;31078;48.304;11.896;2022-10-16T07:32:34;3.78;;;2.40;;
45344;SDS011;31078;48.304;11.896;2022-10-16T07:35:01;4.88;;;2.75;;
45344;SDS011;31078;48.304;11.896;2022-10-16T07:37:27;3.75;;;2.50;;
45344;SDS011;31078;48.304;11.896;2022-10-16T07:39:55;4.38;;;2.70;;
45344;SDS011;31078;48.304;11.896;2022-10-16T07:42:22;3.40;;;2.35;;
45344;SDS011;31078;48.304;11.896;2022-10-16T07:44:48;3.05;;;2.30;;
45344;SDS011;31078;48.304;11.896;2022-10-16T07:47:15;4.35;;;2.17;;
45344;SDS011;31078;48.304;11.896;2022-10-16T07:49:42;4.88;;;2.70;;
45344;SDS011;31078;48.304;11.896;2022-10-16T07:52:08;5.20;;;2.70;;
45344;SDS011;31078;48.304;11.896;2022-10-16T07:54:34;4.20;;;2.67;;
45344;SDS011;31078;48.304;11.896;2022-10-16T07:57:02;4.00;;;2.22;;
45344;SDS011;31078;48.304;11.896;2022-10-16T07:59:29;3.67;;;2.90;;
45344;SDS011;31078;48.304;11.896;2022-10-16T08:01:56;5.60;;;2.47;;
45344;SDS011;31078;48.304;11.896;2022-10-16T08:04:23;4.68;;;3.05;;
45344;SDS011;31078;48.304;11.896;2022-10-16T08:06:49;4.20;;;2.20;;
45344;SDS011;31078;48.304;11.896;2022-10-16T08:09:16;5.55;;;2.00;;
45344;SDS011;31078;48.304;11.896;2022-10-16T08:11:42;4.22;;;2.38;;
45344;SDS011;31078;48.304;11.896;2022-10-16T08:14:10;3.95;;;2.50;;
45344;SDS011;31078;48.304;11.896;2022-10-16T08:16:37;7.85;;;2.38;;
45344;SDS011;31078;48.304;11.896;2022-10-16T08:19:03;3.35;;;2.35;;
45344;SDS011;31078;48.304;11.896;2022-10-16T08:21:30;3.85;;;2.42;;
45344;SDS011;31078;48.304;11.896;2022-10-16T08:23:56;4.93;;;2.35;;
45344;SDS011;31078;48.304;11.896;2022-10-16T08:26:24;3.83;;;2.03;;
45344;SDS011;31078;48.304;11.896;2022-10-16T08:28:52;5.22;;;2.50;;
45344;SDS011;31078;48.304;11.896;2022-10-16T08:31:21;3.72;;;2.30;;
45344;SDS011;31078;48.304;11.896;2022-10-16T08:33:48;4.13;;;1.98;;
45344;SDS011;31078;48.304;11.896;2022-10-16T08:36:15;9.30;;;3.42;;
45344;SDS011;31078;48.304;11.896;2022-10-16T08:38:42;4.80;;;2.70;;
45344;SDS011;31078;48.304;11.896;2022-10-16T08:41:16;4.72;;;2.60;;
45344;SDS011;31078;48.304;11.896;2022-10-16T08:46:45;5.47;;;2.30;;
45344;SDS011;31078;48.304;11.896;2022-10-16T08:49:21;2.95;;;2.10;;
45344;SDS011;31078;48.304;11.896;2022-10-16T08:51:49;5.60;;;2.55;;
45344;SDS011;31078;48.304;11.896;2022-10-16T08:54:21;3.67;;;2.20;;
45344;SDS011;31078;48.304;11.896;2022-10-16T08:56:54;14.30;;;10.68;;
45344;SDS011;31078;48.304;11.896;2022-10-16T08:59:22;4.57;;;3.10;;
45344;SDS011;31078;48.304;11.896;2022-10-16T09:01:50;5.22;;;2.33;;
45344;SDS011;31078;48.304;11.896;2022-10-16T09:04:33;5.40;;;2.53;;
45344;SDS011;31078;48.304;11.896;2022-10-16T09:07:15;4.35;;;2.20;;
45344;SDS011;31078;48.304;11.896;2022-10-16T09:09:58;4.80;;;2.40;;
45344;SDS011;31078;48.304;11.896;2022-10-16T09:12:36;7.03;;;2.83;;
45344;SDS011;31078;48.304;11.896;2022-10-16T09:15:10;4.05;;;2.58;;
45344;SDS011;31078;48.304;11.896;2022-10-16T09:17:47;4.53;;;3.00;;
45344;SDS011;31078;48.304;11.896;2022-10-16T09:20:22;5.47;;;2.78;;
45344;SDS011;31078;48.304;11.896;2022-10-16T09:23:00;6.40;;;2.80;;
45344;SDS011;31078;48.304;11.896;2022-10-16T09:25:43;5.20;;;2.92;;
45344;SDS011;31078;48.304;11.896;2022-10-16T09:28:12;6.35;;;3.63;;
45344;SDS011;31078;48.304;11.896;2022-10-16T09:30:40;7.97;;;4.00;;
45344;SDS011;31078;48.304;11.896;2022-10-16T09:33:09;6.78;;;4.47;;
45344;SDS011;31078;48.304;11.896;2022-10-16T09:35:37;6.53;;;3.67;;
45344;SDS011;31078;48.304;11.896;2022-10-16T09:38:05;5.57;;;3.17;;
45344;SDS011;31078;48.304;11.896;2022-10-16T09:40:34;6.10;;;3.10;;
45344;SDS011;31078;48.304;11.896;2022-10-16T09:43:13;6.82;;;3.45;;
45344;SDS011;31078;48.304;11.896;2022-10-16T09:45:54;6.22;;;3.22;;
45344;SDS011;31078;48.304;11.896;2022-10-16T09:48:23;7.38;;;3.25;;
45344;SDS011;31078;48.304;11.896;2022-10-16T09:50:56;4.38;;;3.08;;
45344;SDS011;31078;48.304;11.896;2022-10-16T09:53:24;6.07;;;3.40;;
45344;SDS011;31078;48.304;11.896;2022-10-16T09:56:03;9.20;;;3.28;;
45344;SDS011;31078;48.304;11.896;2022-10-16T09:58:31;7.13;;;4.07;;
45344;SDS011;31078;48.304;11.896;2022-10-16T10:00:58;5.60;;;3.45;;
45344;SDS011;31078;48.304;11.896;2022-10-16T10:03:33;7.75;;;2.97;;
45344;SDS011;31078;48.304;11.896;2022-10-16T10:06:05;5.47;;;3.05;;
45344;SDS011;31078;48.304;11.896;2022-10-16T10:08:52;6.57;;;2.97;;
45344;SDS011;31078;48.304;11.896;2022-10-16T10:11:39;6.03;;;2.85;;
45344;SDS011;31078;48.304;11.896;2022-10-16T10:14:14;5.72;;;2.67;;
45344;SDS011;31078;48.304;11.896;2022-10-16T10:16:45;8.05;;;3.00;;
45344;SDS011;31078;48.304;11.896;2022-10-16T10:19:14;4.60;;;2.53;;
45344;SDS011;31078;48.304;11.896;2022-10-16T10:21:42;5.90;;;3.20;;
45344;SDS011;31078;48.304;11.896;2022-10-16T10:24:13;4.70;;;2.47;;
45344;SDS011;31078;48.304;11.896;2022-10-16T10:26:41;4.30;;;2.92;;
45344;SDS011;31078;48.304;11.896;2022-10-16T10:29:17;4.32;;;2.40;;
45344;SDS011;31078;48.304;11.896;2022-10-16T10:31:53;4.93;;;2.40;;
45344;SDS011;31078;48.304;11.896;2022-10-16T10:34:38;3.50;;;2.47;;
45344;SDS011;31078;48.304;11.896;2022-10-16T10:37:24;3.30;;;2.00;;
45344;SDS011;31078;48.304;11.896;2022-10-16T10:40:03;5.60;;;2.30;;
45344;SDS011;31078;48.304;11.896;2022-10-16T10:42:44;4.50;;;2.17;;
45344;SDS011;31078;48.304;11.896;2022-10-16T10:47:47;4.00;;;2.20;;
45344;SDS011;31078;48.304;11.896;2022-10-16T10:50:24;3.40;;;1.98;;
45344;SDS011;31078;48.304;11.896;2022-10-16T10:52:59;3.10;;;1.95;;
45344;SDS011;31078;48.304;11.896;2022-10-16T10:55:37;5.35;;;2.45;;
45344;SDS011;31078;48.304;11.896;2022-10-16T10:58:14;3.78;;;2.05;;
45344;SDS011;31078;48.304;11.896;2022-10-16T11:00:51;3.00;;;2.00;;
45344;SDS011;31078;48.304;11.896;2022-10-16T11:03:27;3.10;;;1.80;;
45344;SDS011;31078;48.304;11.896;2022-10-16T11:06:11;2.58;;;1.73;;
45344;SDS011;31078;48.304;11.896;2022-10-16T11:08:43;3.17;;;1.77;;
45344;SDS011;31078;48.304;11.896;2022-10-16T11:11:15;3.50;;;1.90;;
45344;SDS011;31078;48.304;11.896;2022-10-16T11:13:48;6.55;;;2.00;;
45344;SDS011;31078;48.304;11.896;2022-10-16T11:16:22;4.55;;;2.25;;
45344;SDS011;31078;48.304;11.896;2022-10-16T11:18:55;1.73;;;1.38;;
45344;SDS011;31078;48.304;11.896;2022-10-16T11:21:27;2.08;;;1.40;;
45344;SDS011;31078;48.304;11.896;2022-10-16T11:23:59;2.38;;;1.40;;
45344;SDS011;31078;48.304;11.896;2022-10-16T11:26:32;2.83;;;1.40;;
45344;SDS011;31078;48.304;11.896;2022-10-16T11:29:02;3.05;;;1.48;;
45344;SDS011;31078;48.304;11.896;2022-10-16T11:31:37;2.40;;;1.23;;
45344;SDS011;31078;48.304;11.896;2022-10-16T11:34:09;2.22;;;1.20;;
45344;SDS011;31078;48.304;11.896;2022-10-16T11:36:46;3.42;;;1.35;;
45344;SDS011;31078;48.304;11.896;2022-10-16T11:39:19;2.67;;;1.20;;
45344;SDS011;31078;48.304;11.896;2022-10-16T11:41:48;1.73;;;1.00;;
45344;SDS011;31078;48.304;11.896;2022-10-16T11:44:20;2.22;;;1.13;;
45344;SDS011;31078;48.304;11.896;2022-10-16T11:47:07;3.33;;;1.15;;
45344;SDS011;31078;48.304;11.896;2022-10-16T11:49:42;2.05;;;1.20;;
45344;SDS011;31078;48.304;11.896;2022-10-16T11:52:13;1.70;;;1.38;;
45344;SDS011;31078;48.304;11.896;2022-10-16T11:54:47;2.28;;;1.27;;
45344;SDS011;31078;48.304;11.896;2022-10-16T11:57:18;1.17;;;1.02;;
45344;SDS011;31078;48.304;11.896;2022-10-16T11:59:49;2.10;;;1.05;;
45344;SDS011;31078;48.304;11.896;2022-10-16T12:02:25;2.03;;;1.40;;
45344;SDS011;31078;48.304;11.896;2022-10-16T12:05:01;1.58;;;1.00;;
45344;SDS011;31078;48.304;11.896;2022-10-16T12:07:37;1.58;;;1.00;;
45344;SDS011;31078;48.304;11.896;2022-10-16T12:10:10;2.40;;;1.10;;
45344;SDS011;31078;48.304;11.896;2022-10-16T12:12:38;4.70;;;1.13;;
45344;SDS011;31078;48.304;11.896;2022-10-16T12:15:18;1.45;;;1.00;;
45344;SDS011;31078;48.304;11.896;2022-10-16T12:17:48;1.48;;;1.00;;
45344;SDS011;31078;48.304;11.896;2022-10-16T12:20:20;1.65;;;1.10;;
45344;SDS011;31078;48.304;11.896;2022-10-16T12:22:51;6.10;;;1.50;;
45344;SDS011;31078;48.304;11.896;2022-10-16T12:25:21;3.28;;;1.20;;
45344;SDS011;31078;48.304;11.896;2022-10-16T12:27:57;1.88;;;0.90;;
45344;SDS011;31078;48.304;11.896;2022-10-16T12:30:27;1.50;;;1.00;;
45344;SDS011;31078;48.304;11.896;2022-10-16T12:32:56;2.95;;;1.10;;
45344;SDS011;31078;48.304;11.896;2022-10-16T12:35:27;1.70;;;1.20;;
45344;SDS011;31078;48.304;11.896;2022-10-16T12:38:19;3.17;;;0.93;;
45344;SDS011;31078;48.304;11.896;2022-10-16T12:40:55;2.92;;;1.77;;
45344;SDS011;31078;48.304;11.896;2022-10-16T12:46:22;2.78;;;0.93;;
45344;SDS011;31078;48.304;11.896;2022-10-16T12:49:17;3.42;;;0.80;;
45344;SDS011;31078;48.304;11.896;2022-10-16T12:51:49;1.92;;;1.20;;
45344;SDS011;31078;48.304;11.896;2022-10-16T12:54:18;1.23;;;0.80;;
45344;SDS011;31078;48.304;11.896;2022-10-16T12:56:55;1.92;;;1.00;;
45344;SDS011;31078;48.304;11.896;2022-10-16T12:59:35;1.83;;;1.10;;
45344;SDS011;31078;48.304;11.896;2022-10-16T13:02:34;1.05;;;0.85;;
45344;SDS011;31078;48.304;11.896;2022-10-16T13:05:18;1.00;;;0.90;;
45344;SDS011;31078;48.304;11.896;2022-10-16T13:07:55;1.55;;;1.00;;
45344;SDS011;31078;48.304;11.896;2022-10-16T13:10:34;3.70;;;1.00;;
45344;SDS011;31078;48.304;11.896;2022-10-16T13:13:14;2.85;;;1.20;;
45344;SDS011;31078;48.304;11.896;2022-10-16T13:16:01;1.70;;;1.00;;
45344;SDS011;31078;48.304;11.896;2022-10-16T13:18:38;3.08;;;1.25;;
45344;SDS011;31078;48.304;11.896;2022-10-16T13:21:18;2.88;;;1.00;;
45344;SDS011;31078;48.304;11.896;2022-10-16T13:23:59;1.85;;;0.90;;
45344;SDS011;31078;48.304;11.896;2022-10-16T13:26:38;0.88;;;0.80;;
45344;SDS011;31078;48.304;11.896;2022-10-16T13:29:13;1.40;;;0.80;;
45344;SDS011;31078;48.304;11.896;2022-10-16T13:31:40;2.00;;;1.10;;
45344;SDS011;31078;48.304;11.896;2022-10-16T13:34:11;3.45;;;0.90;;
45344;SDS011;31078;48.304;11.896;2022-10-16T13:36:43;2.53;;;0.90;;
45344;SDS011;31078;48.304;11.896;2022-10-16T13:39:12;0.77;;;0.70;;
45344;SDS011;31078;48.304;11.896;2022-10-16T13:41:43;3.42;;;0.80;;
45344;SDS011;31078;48.304;11.896;2022-10-16T13:44:14;2.03;;;1.10;;
45344;SDS011;31078;48.304;11.896;2022-10-16T13:46:44;1.10;;;0.70;;
45344;SDS011;31078;48.304;11.896;2022-10-16T13:49:12;2.67;;;1.08;;
45344;SDS011;31078;48.304;11.896;2022-10-16T13:51:40;1.05;;;0.93;;
45344;SDS011;31078;48.304;11.896;2022-10-16T13:54:09;3.00;;;1.10;;
45344;SDS011;31078;48.304;11.896;2022-10-16T13:56:38;2.03;;;1.00;;
45344;SDS011;31078;48.304;11.896;2022-10-16T13:59:21;2.58;;;0.80;;
45344;SDS011;31078;48.304;11.896;2022-10-16T14:01:50;1.83;;;0.90;;
45344;SDS011;31078;48.304;11.896;2022-10-16T14:04:20;3.10;;;0.80;;
45344;SDS011;31078;48.304;11.896;2022-10-16T14:06:49;1.70;;;0.80;;
45344;SDS011;31078;48.304;11.896;2022-10-16T14:09:21;2.65;;;0.90;;
45344;SDS011;31078;48.304;11.896;2022-10-16T14:11:51;2.67;;;0.70;;
45344;SDS011;31078;48.304;11.896;2022-10-16T14:14:22;1.98;;;0.93;;
45344;SDS011;31078;48.304;11.896;2022-10-16T14:16:49;1.15;;;0.80;;
45344;SDS011;31078;48.304;11.896;2022-10-16T14:19:18;1.02;;;0.80;;
45344;SDS011;31078;48.304;11.896;2022-10-16T14:21:47;2.45;;;1.00;;
45344;SDS011;31078;48.304;11.896;2022-10-16T14:24:22;2.33;;;0.85;;
45344;SDS011;31078;48.304;11.896;2022-10-16T14:26:52;1.88;;;0.90;;
45344;SDS011;31078;48.304;11.896;2022-10-16T14:29:21;11.00;;;4.65;;
45344;SDS011;31078;48.304;11.896;2022-10-16T14:31:55;1.83;;;1.00;;
45344;SDS011;31078;48.304;11.896;2022-10-16T14:34:24;5.30;;;2.00;;
45344;SDS011;31078;48.304;11.896;2022-10-16T14:36:52;4.47;;;1.65;;
45344;SDS011;31078;48.304;11.896;2022-10-16T14:39:20;2.40;;;1.05;;
45344;SDS011;31078;48.304;11.896;2022-10-16T14:41:51;2.50;;;0.98;;
45344;SDS011;31078;48.304;11.896;2022-10-16T14:44:24;1.88;;;1.13;;
45344;SDS011;31078;48.304;11.896;2022-10-16T14:46:55;2.40;;;1.13;;
45344;SDS011;31078;48.304;11.896;2022-10-16T14:49:26;2.92;;;1.20;;
45344;SDS011;31078;48.304;11.896;2022-10-16T14:51:53;3.00;;;1.30;;
45344;SDS011;31078;48.304;11.896;2022-10-16T14:54:20;4.85;;;2.10;;
45344;SDS011;31078;48.304;11.896;2022-10-16T14:56:47;2.13;;;1.15;;
45344;SDS011;31078;48.304;11.896;2022-10-16T14:59:17;1.80;;;1.00;;